Terminal Aerodrome Forecast
Issued by NWS Tampa Bay Area, FL

Home | Current Version | Previous Version | Text Only | Print | Product List | Glossary On
Versions: 1 2 3 4 5 6 7 8 9 10 11 12 13 14 15
000
FTUS42 KTBW 040529 AAA
TAFFMY
TAF AMD
KFMY 040529Z 0405/0506 18004KT P6SM FEW015 BKN250
     FM041800 23007KT P6SM VCTS SCT040CB BKN250
     FM050000 26005KT P6SM FEW060 BKN200=

USA.gov is the U.S. government's official web portal to all federal, state and local government web resources and services.